Hillman, Minnesota
Current Conditions -  °F | °C
As of 6:57 PM on Friday 24 Oct 2014 (Local Time) from KLXL Reporting Station
Clear Clear  
Wind Chill: 59°   Ceiling: Unl
Heat Index: 59°   Visibility: 10mi
Dew Point: 39°   Wind: 3mph
Humidity: 48%   Direction: 230°SW
Pressure: 29.83"   Gusts: NA
Location:  46°N, 93.89°W
Report Text: KLXL 242357Z AUTO 23003KT 10SM CLR 15/04 A2983 RMK AO2
Loading
Personal Weather Stations






























Interactive Weather Map
Tropical Storm Tracking
New forecast layout! Learn more

10-Day Weather Forecast

Advertisements
Track Severe Weather on mobile